sensor_id;sensor_type;location;lat;lon;timestamp;P1;durP1;ratioP1;P2;durP2;ratioP2
45490;SDS011;31237;45.586;13.782;2023-07-24T00:01:56;11.23;;;6.57;;
45490;SDS011;31237;45.586;13.782;2023-07-24T00:04:22;9.70;;;7.10;;
45490;SDS011;31237;45.586;13.782;2023-07-24T00:06:48;11.20;;;7.07;;
45490;SDS011;31237;45.586;13.782;2023-07-24T00:09:14;9.13;;;6.90;;
45490;SDS011;31237;45.586;13.782;2023-07-24T00:11:40;9.75;;;6.18;;
45490;SDS011;31237;45.586;13.782;2023-07-24T00:14:05;13.32;;;7.25;;
45490;SDS011;31237;45.586;13.782;2023-07-24T00:16:31;11.60;;;10.48;;
45490;SDS011;31237;45.586;13.782;2023-07-24T00:18:57;14.32;;;13.10;;
45490;SDS011;31237;45.586;13.782;2023-07-24T00:21:23;16.63;;;15.43;;
45490;SDS011;31237;45.586;13.782;2023-07-24T00:23:48;16.48;;;15.23;;
45490;SDS011;31237;45.586;13.782;2023-07-24T00:26:14;16.83;;;15.38;;
45490;SDS011;31237;45.586;13.782;2023-07-24T00:28:39;18.15;;;16.42;;
45490;SDS011;31237;45.586;13.782;2023-07-24T00:31:05;15.40;;;14.05;;
45490;SDS011;31237;45.586;13.782;2023-07-24T00:33:31;15.05;;;13.73;;
45490;SDS011;31237;45.586;13.782;2023-07-24T00:35:57;16.45;;;14.95;;
45490;SDS011;31237;45.586;13.782;2023-07-24T00:38:23;17.30;;;16.00;;
45490;SDS011;31237;45.586;13.782;2023-07-24T00:40:49;17.63;;;16.33;;
45490;SDS011;31237;45.586;13.782;2023-07-24T00:43:15;15.23;;;13.90;;
45490;SDS011;31237;45.586;13.782;2023-07-24T00:45:42;15.40;;;14.10;;
45490;SDS011;31237;45.586;13.782;2023-07-24T00:48:08;15.65;;;14.10;;
45490;SDS011;31237;45.586;13.782;2023-07-24T00:50:33;17.73;;;16.33;;
45490;SDS011;31237;45.586;13.782;2023-07-24T00:53:01;16.00;;;14.63;;
45490;SDS011;31237;45.586;13.782;2023-07-24T00:55:27;10.07;;;8.05;;
45490;SDS011;31237;45.586;13.782;2023-07-24T00:57:53;11.05;;;7.65;;
45490;SDS011;31237;45.586;13.782;2023-07-24T01:00:19;9.68;;;6.32;;
45490;SDS011;31237;45.586;13.782;2023-07-24T01:02:45;10.60;;;6.32;;
45490;SDS011;31237;45.586;13.782;2023-07-24T01:05:12;8.48;;;5.60;;
45490;SDS011;31237;45.586;13.782;2023-07-24T01:07:42;11.43;;;6.50;;
45490;SDS011;31237;45.586;13.782;2023-07-24T01:10:07;10.50;;;6.07;;
45490;SDS011;31237;45.586;13.782;2023-07-24T01:12:45;7.82;;;5.68;;
45490;SDS011;31237;45.586;13.782;2023-07-24T01:15:48;9.65;;;7.75;;
45490;SDS011;31237;45.586;13.782;2023-07-24T01:18:26;11.13;;;7.07;;
45490;SDS011;31237;45.586;13.782;2023-07-24T01:20:56;11.20;;;6.90;;
45490;SDS011;31237;45.586;13.782;2023-07-24T01:23:35;12.00;;;7.22;;
45490;SDS011;31237;45.586;13.782;2023-07-24T01:26:11;10.85;;;6.43;;
45490;SDS011;31237;45.586;13.782;2023-07-24T01:28:38;11.73;;;6.72;;
45490;SDS011;31237;45.586;13.782;2023-07-24T01:31:04;11.52;;;7.20;;
45490;SDS011;31237;45.586;13.782;2023-07-24T01:33:30;12.10;;;6.97;;
45490;SDS011;31237;45.586;13.782;2023-07-24T01:35:59;11.75;;;8.00;;
45490;SDS011;31237;45.586;13.782;2023-07-24T01:38:27;13.13;;;8.20;;
45490;SDS011;31237;45.586;13.782;2023-07-24T01:40:55;13.07;;;8.43;;
45490;SDS011;31237;45.586;13.782;2023-07-24T01:43:21;15.23;;;8.77;;
45490;SDS011;31237;45.586;13.782;2023-07-24T01:45:48;11.55;;;9.38;;
45490;SDS011;31237;45.586;13.782;2023-07-24T01:48:13;11.45;;;9.07;;
45490;SDS011;31237;45.586;13.782;2023-07-24T01:50:39;10.55;;;8.70;;
45490;SDS011;31237;45.586;13.782;2023-07-24T01:53:05;15.00;;;8.75;;
45490;SDS011;31237;45.586;13.782;2023-07-24T01:55:30;11.85;;;7.35;;
45490;SDS011;31237;45.586;13.782;2023-07-24T01:57:56;11.27;;;8.65;;
45490;SDS011;31237;45.586;13.782;2023-07-24T02:00:21;11.60;;;7.95;;
45490;SDS011;31237;45.586;13.782;2023-07-24T02:02:47;11.02;;;7.72;;
45490;SDS011;31237;45.586;13.782;2023-07-24T02:05:13;11.52;;;7.68;;
45490;SDS011;31237;45.586;13.782;2023-07-24T02:07:39;11.88;;;7.22;;
45490;SDS011;31237;45.586;13.782;2023-07-24T02:10:04;11.48;;;6.80;;
45490;SDS011;31237;45.586;13.782;2023-07-24T02:12:30;10.35;;;7.00;;
45490;SDS011;31237;45.586;13.782;2023-07-24T02:14:56;11.98;;;6.70;;
45490;SDS011;31237;45.586;13.782;2023-07-24T02:17:23;9.73;;;6.63;;
45490;SDS011;31237;45.586;13.782;2023-07-24T02:19:48;11.50;;;7.60;;
45490;SDS011;31237;45.586;13.782;2023-07-24T02:22:15;13.90;;;7.60;;
45490;SDS011;31237;45.586;13.782;2023-07-24T02:24:40;13.23;;;9.27;;
45490;SDS011;31237;45.586;13.782;2023-07-24T02:27:06;11.48;;;8.82;;
45490;SDS011;31237;45.586;13.782;2023-07-24T02:29:32;11.35;;;7.75;;
45490;SDS011;31237;45.586;13.782;2023-07-24T02:31:58;10.43;;;6.22;;
45490;SDS011;31237;45.586;13.782;2023-07-24T02:34:24;10.50;;;6.82;;
45490;SDS011;31237;45.586;13.782;2023-07-24T02:36:52;11.20;;;6.22;;
45490;SDS011;31237;45.586;13.782;2023-07-24T02:39:19;10.13;;;6.95;;
45490;SDS011;31237;45.586;13.782;2023-07-24T02:41:45;8.73;;;6.22;;
45490;SDS011;31237;45.586;13.782;2023-07-24T02:44:12;12.52;;;7.05;;
45490;SDS011;31237;45.586;13.782;2023-07-24T02:46:38;9.00;;;7.32;;
45490;SDS011;31237;45.586;13.782;2023-07-24T02:49:03;10.98;;;7.38;;
45490;SDS011;31237;45.586;13.782;2023-07-24T02:51:30;10.23;;;7.50;;
45490;SDS011;31237;45.586;13.782;2023-07-24T02:53:55;10.00;;;7.30;;
45490;SDS011;31237;45.586;13.782;2023-07-24T02:56:21;10.55;;;6.93;;
45490;SDS011;31237;45.586;13.782;2023-07-24T02:58:47;9.65;;;5.90;;
45490;SDS011;31237;45.586;13.782;2023-07-24T03:01:13;11.70;;;6.03;;
45490;SDS011;31237;45.586;13.782;2023-07-24T03:03:42;9.30;;;6.25;;
45490;SDS011;31237;45.586;13.782;2023-07-24T03:06:08;9.57;;;6.18;;
45490;SDS011;31237;45.586;13.782;2023-07-24T03:08:34;10.93;;;6.55;;
45490;SDS011;31237;45.586;13.782;2023-07-24T03:11:00;10.38;;;6.25;;
45490;SDS011;31237;45.586;13.782;2023-07-24T03:13:27;10.57;;;6.90;;
45490;SDS011;31237;45.586;13.782;2023-07-24T03:15:53;11.05;;;7.43;;
45490;SDS011;31237;45.586;13.782;2023-07-24T03:18:20;13.32;;;7.70;;
45490;SDS011;31237;45.586;13.782;2023-07-24T03:20:46;11.38;;;8.00;;
45490;SDS011;31237;45.586;13.782;2023-07-24T03:23:12;9.70;;;6.15;;
45490;SDS011;31237;45.586;13.782;2023-07-24T03:25:38;9.57;;;6.25;;
45490;SDS011;31237;45.586;13.782;2023-07-24T03:28:04;13.52;;;6.28;;
45490;SDS011;31237;45.586;13.782;2023-07-24T03:30:29;10.13;;;6.00;;
45490;SDS011;31237;45.586;13.782;2023-07-24T03:32:55;10.25;;;6.20;;
45490;SDS011;31237;45.586;13.782;2023-07-24T03:35:21;10.05;;;6.35;;
45490;SDS011;31237;45.586;13.782;2023-07-24T03:37:47;14.35;;;7.35;;
45490;SDS011;31237;45.586;13.782;2023-07-24T03:40:13;13.23;;;9.80;;
45490;SDS011;31237;45.586;13.782;2023-07-24T03:42:39;10.02;;;8.18;;
45490;SDS011;31237;45.586;13.782;2023-07-24T03:45:05;11.45;;;8.60;;
45490;SDS011;31237;45.586;13.782;2023-07-24T03:47:31;11.68;;;10.57;;
45490;SDS011;31237;45.586;13.782;2023-07-24T03:49:57;13.00;;;9.13;;
45490;SDS011;31237;45.586;13.782;2023-07-24T03:52:22;10.32;;;9.23;;
45490;SDS011;31237;45.586;13.782;2023-07-24T03:54:48;10.10;;;7.30;;
45490;SDS011;31237;45.586;13.782;2023-07-24T03:57:14;13.25;;;8.27;;
45490;SDS011;31237;45.586;13.782;2023-07-24T03:59:39;12.55;;;7.28;;
45490;SDS011;31237;45.586;13.782;2023-07-24T04:02:05;13.90;;;7.18;;
45490;SDS011;31237;45.586;13.782;2023-07-24T04:04:31;10.95;;;7.70;;
45490;SDS011;31237;45.586;13.782;2023-07-24T04:06:58;12.55;;;9.73;;
45490;SDS011;31237;45.586;13.782;2023-07-24T04:09:23;12.05;;;9.65;;
45490;SDS011;31237;45.586;13.782;2023-07-24T04:11:49;11.25;;;7.85;;
45490;SDS011;31237;45.586;13.782;2023-07-24T04:14:15;11.23;;;8.02;;
45490;SDS011;31237;45.586;13.782;2023-07-24T04:16:40;12.15;;;7.28;;
45490;SDS011;31237;45.586;13.782;2023-07-24T04:19:06;11.13;;;7.40;;
45490;SDS011;31237;45.586;13.782;2023-07-24T04:21:32;10.95;;;7.30;;
45490;SDS011;31237;45.586;13.782;2023-07-24T04:23:58;12.20;;;8.10;;
45490;SDS011;31237;45.586;13.782;2023-07-24T04:26:23;11.15;;;7.05;;
45490;SDS011;31237;45.586;13.782;2023-07-24T04:28:49;10.32;;;6.90;;
45490;SDS011;31237;45.586;13.782;2023-07-24T04:31:15;15.30;;;7.90;;
45490;SDS011;31237;45.586;13.782;2023-07-24T04:33:40;10.90;;;7.57;;
45490;SDS011;31237;45.586;13.782;2023-07-24T04:36:06;12.15;;;8.18;;
45490;SDS011;31237;45.586;13.782;2023-07-24T04:38:32;12.65;;;7.93;;
45490;SDS011;31237;45.586;13.782;2023-07-24T04:40:59;11.82;;;8.45;;
45490;SDS011;31237;45.586;13.782;2023-07-24T04:43:26;10.68;;;8.10;;
45490;SDS011;31237;45.586;13.782;2023-07-24T04:45:52;13.38;;;8.77;;
45490;SDS011;31237;45.586;13.782;2023-07-24T04:48:17;12.27;;;9.18;;
45490;SDS011;31237;45.586;13.782;2023-07-24T04:50:43;11.07;;;8.88;;
45490;SDS011;31237;45.586;13.782;2023-07-24T04:53:09;9.88;;;8.00;;
45490;SDS011;31237;45.586;13.782;2023-07-24T04:55:35;11.45;;;8.95;;
45490;SDS011;31237;45.586;13.782;2023-07-24T04:58:00;12.18;;;7.95;;
45490;SDS011;31237;45.586;13.782;2023-07-24T05:00:26;11.18;;;7.55;;
45490;SDS011;31237;45.586;13.782;2023-07-24T05:02:52;12.18;;;10.82;;
45490;SDS011;31237;45.586;13.782;2023-07-24T05:05:17;15.98;;;12.75;;
45490;SDS011;31237;45.586;13.782;2023-07-24T05:07:43;13.00;;;10.90;;
45490;SDS011;31237;45.586;13.782;2023-07-24T05:10:09;13.75;;;11.43;;
45490;SDS011;31237;45.586;13.782;2023-07-24T05:12:35;14.10;;;11.23;;
45490;SDS011;31237;45.586;13.782;2023-07-24T05:15:00;18.88;;;11.15;;
45490;SDS011;31237;45.586;13.782;2023-07-24T05:17:26;14.23;;;10.63;;
45490;SDS011;31237;45.586;13.782;2023-07-24T05:19:52;17.73;;;9.45;;
45490;SDS011;31237;45.586;13.782;2023-07-24T05:22:17;14.77;;;7.22;;
45490;SDS011;31237;45.586;13.782;2023-07-24T05:24:43;14.63;;;7.57;;
45490;SDS011;31237;45.586;13.782;2023-07-24T05:27:09;16.33;;;7.75;;
45490;SDS011;31237;45.586;13.782;2023-07-24T05:29:34;14.65;;;9.32;;
45490;SDS011;31237;45.586;13.782;2023-07-24T05:32:00;14.32;;;8.32;;
45490;SDS011;31237;45.586;13.782;2023-07-24T05:34:26;14.68;;;9.00;;
45490;SDS011;31237;45.586;13.782;2023-07-24T05:36:51;10.07;;;6.93;;
45490;SDS011;31237;45.586;13.782;2023-07-24T05:39:17;11.75;;;7.93;;
45490;SDS011;31237;45.586;13.782;2023-07-24T05:41:43;13.48;;;9.00;;
45490;SDS011;31237;45.586;13.782;2023-07-24T05:44:08;11.10;;;6.97;;
45490;SDS011;31237;45.586;13.782;2023-07-24T05:46:34;13.25;;;7.78;;
45490;SDS011;31237;45.586;13.782;2023-07-24T05:49:00;11.75;;;7.80;;
45490;SDS011;31237;45.586;13.782;2023-07-24T05:51:26;12.73;;;7.85;;
45490;SDS011;31237;45.586;13.782;2023-07-24T05:53:52;13.50;;;8.05;;
45490;SDS011;31237;45.586;13.782;2023-07-24T05:56:18;11.93;;;7.40;;
45490;SDS011;31237;45.586;13.782;2023-07-24T05:58:44;14.50;;;7.70;;
45490;SDS011;31237;45.586;13.782;2023-07-24T06:01:10;14.93;;;9.20;;
45490;SDS011;31237;45.586;13.782;2023-07-24T06:03:35;13.68;;;9.18;;
45490;SDS011;31237;45.586;13.782;2023-07-24T06:06:01;11.88;;;8.93;;
45490;SDS011;31237;45.586;13.782;2023-07-24T06:08:27;13.55;;;8.80;;
45490;SDS011;31237;45.586;13.782;2023-07-24T06:10:53;15.95;;;8.38;;
45490;SDS011;31237;45.586;13.782;2023-07-24T06:13:19;13.57;;;7.65;;
45490;SDS011;31237;45.586;13.782;2023-07-24T06:15:46;13.52;;;7.75;;
45490;SDS011;31237;45.586;13.782;2023-07-24T06:18:13;12.40;;;6.72;;
45490;SDS011;31237;45.586;13.782;2023-07-24T06:20:39;10.80;;;6.57;;
45490;SDS011;31237;45.586;13.782;2023-07-24T06:23:05;12.02;;;7.68;;
45490;SDS011;31237;45.586;13.782;2023-07-24T06:25:31;10.50;;;7.35;;
45490;SDS011;31237;45.586;13.782;2023-07-24T06:27:57;13.77;;;7.43;;
45490;SDS011;31237;45.586;13.782;2023-07-24T06:30:23;10.35;;;6.57;;
45490;SDS011;31237;45.586;13.782;2023-07-24T06:32:49;12.05;;;7.30;;
45490;SDS011;31237;45.586;13.782;2023-07-24T06:35:14;12.35;;;8.05;;
45490;SDS011;31237;45.586;13.782;2023-07-24T06:37:40;8.73;;;5.95;;
45490;SDS011;31237;45.586;13.782;2023-07-24T06:40:06;10.68;;;7.90;;
45490;SDS011;31237;45.586;13.782;2023-07-24T06:42:33;14.02;;;8.02;;
45490;SDS011;31237;45.586;13.782;2023-07-24T06:44:59;9.50;;;7.32;;
45490;SDS011;31237;45.586;13.782;2023-07-24T06:47:24;10.32;;;6.30;;
45490;SDS011;31237;45.586;13.782;2023-07-24T06:49:50;12.25;;;7.18;;
45490;SDS011;31237;45.586;13.782;2023-07-24T06:52:16;10.57;;;6.60;;
45490;SDS011;31237;45.586;13.782;2023-07-24T06:54:41;9.60;;;6.22;;
45490;SDS011;31237;45.586;13.782;2023-07-24T06:57:07;10.57;;;5.97;;
45490;SDS011;31237;45.586;13.782;2023-07-24T06:59:33;10.82;;;6.40;;
45490;SDS011;31237;45.586;13.782;2023-07-24T07:01:59;14.25;;;6.57;;
45490;SDS011;31237;45.586;13.782;2023-07-24T07:04:24;10.63;;;6.35;;
45490;SDS011;31237;45.586;13.782;2023-07-24T07:06:50;10.77;;;6.97;;
45490;SDS011;31237;45.586;13.782;2023-07-24T07:09:16;9.40;;;6.28;;
45490;SDS011;31237;45.586;13.782;2023-07-24T07:11:41;11.35;;;6.30;;
45490;SDS011;31237;45.586;13.782;2023-07-24T07:14:08;9.95;;;6.75;;
45490;SDS011;31237;45.586;13.782;2023-07-24T07:16:34;9.02;;;5.90;;
45490;SDS011;31237;45.586;13.782;2023-07-24T07:19:00;10.57;;;7.40;;
45490;SDS011;31237;45.586;13.782;2023-07-24T07:21:26;10.32;;;6.63;;
45490;SDS011;31237;45.586;13.782;2023-07-24T07:23:51;9.20;;;8.18;;
45490;SDS011;31237;45.586;13.782;2023-07-24T07:26:17;10.70;;;8.27;;
45490;SDS011;31237;45.586;13.782;2023-07-24T07:28:43;8.30;;;6.38;;
45490;SDS011;31237;45.586;13.782;2023-07-24T07:31:10;10.73;;;6.82;;
45490;SDS011;31237;45.586;13.782;2023-07-24T07:33:36;10.63;;;7.47;;
45490;SDS011;31237;45.586;13.782;2023-07-24T07:36:01;9.65;;;8.15;;
45490;SDS011;31237;45.586;13.782;2023-07-24T07:38:29;10.40;;;7.85;;
45490;SDS011;31237;45.586;13.782;2023-07-24T07:40:55;14.68;;;6.65;;
45490;SDS011;31237;45.586;13.782;2023-07-24T07:43:20;10.13;;;6.18;;
45490;SDS011;31237;45.586;13.782;2023-07-24T07:45:52;10.52;;;8.48;;
45490;SDS011;31237;45.586;13.782;2023-07-24T07:48:18;8.75;;;7.03;;
45490;SDS011;31237;45.586;13.782;2023-07-24T07:50:43;9.15;;;5.82;;
45490;SDS011;31237;45.586;13.782;2023-07-24T07:53:09;10.27;;;6.93;;
45490;SDS011;31237;45.586;13.782;2023-07-24T07:55:35;9.55;;;7.75;;
45490;SDS011;31237;45.586;13.782;2023-07-24T07:58:00;8.32;;;6.18;;
45490;SDS011;31237;45.586;13.782;2023-07-24T08:00:26;8.90;;;6.57;;
45490;SDS011;31237;45.586;13.782;2023-07-24T08:02:52;8.90;;;6.60;;
45490;SDS011;31237;45.586;13.782;2023-07-24T08:05:17;10.57;;;6.97;;
45490;SDS011;31237;45.586;13.782;2023-07-24T08:07:43;9.50;;;6.20;;
45490;SDS011;31237;45.586;13.782;2023-07-24T08:10:09;11.27;;;7.85;;
45490;SDS011;31237;45.586;13.782;2023-07-24T08:12:34;11.85;;;8.13;;
45490;SDS011;31237;45.586;13.782;2023-07-24T08:15:00;9.38;;;6.45;;
45490;SDS011;31237;45.586;13.782;2023-07-24T08:17:26;12.65;;;7.80;;
45490;SDS011;31237;45.586;13.782;2023-07-24T08:19:51;9.80;;;7.05;;
45490;SDS011;31237;45.586;13.782;2023-07-24T08:22:17;11.27;;;7.47;;
45490;SDS011;31237;45.586;13.782;2023-07-24T08:24:44;10.45;;;6.82;;
45490;SDS011;31237;45.586;13.782;2023-07-24T08:27:10;12.00;;;6.00;;
45490;SDS011;31237;45.586;13.782;2023-07-24T08:29:36;11.07;;;5.15;;
45490;SDS011;31237;45.586;13.782;2023-07-24T08:32:03;10.05;;;5.25;;
45490;SDS011;31237;45.586;13.782;2023-07-24T08:34:29;10.73;;;5.65;;
45490;SDS011;31237;45.586;13.782;2023-07-24T08:36:55;7.63;;;5.65;;
45490;SDS011;31237;45.586;13.782;2023-07-24T08:39:21;11.90;;;5.70;;
45490;SDS011;31237;45.586;13.782;2023-07-24T08:41:46;9.85;;;6.18;;
45490;SDS011;31237;45.586;13.782;2023-07-24T08:44:12;9.15;;;5.25;;
45490;SDS011;31237;45.586;13.782;2023-07-24T08:46:38;9.60;;;5.97;;
45490;SDS011;31237;45.586;13.782;2023-07-24T08:49:06;10.75;;;5.90;;
45490;SDS011;31237;45.586;13.782;2023-07-24T08:51:36;12.90;;;6.35;;
45490;SDS011;31237;45.586;13.782;2023-07-24T08:54:03;10.55;;;6.22;;
45490;SDS011;31237;45.586;13.782;2023-07-24T08:56:30;12.45;;;6.07;;
45490;SDS011;31237;45.586;13.782;2023-07-24T08:58:56;10.27;;;6.60;;
45490;SDS011;31237;45.586;13.782;2023-07-24T09:01:22;9.05;;;5.60;;
45490;SDS011;31237;45.586;13.782;2023-07-24T09:03:48;14.68;;;6.28;;
45490;SDS011;31237;45.586;13.782;2023-07-24T09:06:13;10.63;;;5.15;;
45490;SDS011;31237;45.586;13.782;2023-07-24T09:08:40;9.50;;;6.13;;
45490;SDS011;31237;45.586;13.782;2023-07-24T09:11:07;11.50;;;6.57;;
45490;SDS011;31237;45.586;13.782;2023-07-24T09:13:38;11.50;;;7.18;;
45490;SDS011;31237;45.586;13.782;2023-07-24T09:16:07;9.20;;;7.00;;
45490;SDS011;31237;45.586;13.782;2023-07-24T09:18:41;9.50;;;5.82;;
45490;SDS011;31237;45.586;13.782;2023-07-24T09:21:09;11.02;;;6.95;;
45490;SDS011;31237;45.586;13.782;2023-07-24T09:23:37;13.85;;;7.75;;
45490;SDS011;31237;45.586;13.782;2023-07-24T09:26:06;9.93;;;6.70;;
45490;SDS011;31237;45.586;13.782;2023-07-24T09:28:32;12.73;;;8.30;;
45490;SDS011;31237;45.586;13.782;2023-07-24T09:30:59;10.80;;;7.22;;
45490;SDS011;31237;45.586;13.782;2023-07-24T09:33:39;11.32;;;7.25;;
45490;SDS011;31237;45.586;13.782;2023-07-24T09:36:07;10.18;;;6.63;;
45490;SDS011;31237;45.586;13.782;2023-07-24T09:38:34;10.93;;;6.60;;
45490;SDS011;31237;45.586;13.782;2023-07-24T09:41:03;8.70;;;5.45;;
45490;SDS011;31237;45.586;13.782;2023-07-24T09:43:30;10.73;;;6.70;;
45490;SDS011;31237;45.586;13.782;2023-07-24T09:45:57;9.20;;;6.35;;
45490;SDS011;31237;45.586;13.782;2023-07-24T09:48:26;9.07;;;6.50;;
45490;SDS011;31237;45.586;13.782;2023-07-24T09:50:53;9.07;;;7.15;;
45490;SDS011;31237;45.586;13.782;2023-07-24T09:56:02;11.15;;;5.43;;
45490;SDS011;31237;45.586;13.782;2023-07-24T09:58:28;9.27;;;6.05;;
45490;SDS011;31237;45.586;13.782;2023-07-24T10:00:54;12.95;;;6.90;;
45490;SDS011;31237;45.586;13.782;2023-07-24T10:03:21;9.18;;;5.63;;
45490;SDS011;31237;45.586;13.782;2023-07-24T10:05:47;10.30;;;5.90;;
45490;SDS011;31237;45.586;13.782;2023-07-24T10:08:15;8.38;;;5.72;;
45490;SDS011;31237;45.586;13.782;2023-07-24T10:10:42;11.23;;;6.53;;
45490;SDS011;31237;45.586;13.782;2023-07-24T10:13:08;12.95;;;6.32;;
45490;SDS011;31237;45.586;13.782;2023-07-24T10:15:38;11.95;;;6.80;;
45490;SDS011;31237;45.586;13.782;2023-07-24T10:18:06;12.32;;;6.80;;
45490;SDS011;31237;45.586;13.782;2023-07-24T10:20:39;11.73;;;7.03;;
45490;SDS011;31237;45.586;13.782;2023-07-24T10:23:06;12.20;;;7.45;;
45490;SDS011;31237;45.586;13.782;2023-07-24T10:25:34;9.82;;;6.35;;
45490;SDS011;31237;45.586;13.782;2023-07-24T10:28:02;7.88;;;6.15;;
45490;SDS011;31237;45.586;13.782;2023-07-24T10:30:32;9.52;;;7.80;;
45490;SDS011;31237;45.586;13.782;2023-07-24T10:33:08;9.02;;;6.30;;
45490;SDS011;31237;45.586;13.782;2023-07-24T10:35:42;11.75;;;7.75;;
45490;SDS011;31237;45.586;13.782;2023-07-24T10:38:11;11.70;;;7.82;;
45490;SDS011;31237;45.586;13.782;2023-07-24T10:40:40;12.50;;;9.38;;
45490;SDS011;31237;45.586;13.782;2023-07-24T10:43:07;12.95;;;9.35;;
45490;SDS011;31237;45.586;13.782;2023-07-24T10:45:59;12.27;;;7.13;;
45490;SDS011;31237;45.586;13.782;2023-07-24T10:48:25;10.45;;;6.20;;
45490;SDS011;31237;45.586;13.782;2023-07-24T10:50:51;11.40;;;7.15;;
45490;SDS011;31237;45.586;13.782;2023-07-24T10:53:18;11.98;;;7.88;;
45490;SDS011;31237;45.586;13.782;2023-07-24T10:55:46;11.38;;;7.63;;
45490;SDS011;31237;45.586;13.782;2023-07-24T10:58:12;11.45;;;5.43;;
45490;SDS011;31237;45.586;13.782;2023-07-24T11:00:42;8.52;;;5.65;;
45490;SDS011;31237;45.586;13.782;2023-07-24T11:03:09;13.20;;;6.82;;
45490;SDS011;31237;45.586;13.782;2023-07-24T11:05:42;9.65;;;8.68;;
45490;SDS011;31237;45.586;13.782;2023-07-24T11:08:12;10.55;;;7.18;;
45490;SDS011;31237;45.586;13.782;2023-07-24T11:10:56;8.65;;;6.57;;
45490;SDS011;31237;45.586;13.782;2023-07-24T11:13:24;10.68;;;8.30;;
45490;SDS011;31237;45.586;13.782;2023-07-24T11:15:54;9.48;;;6.72;;
45490;SDS011;31237;45.586;13.782;2023-07-24T11:18:20;10.35;;;5.53;;
45490;SDS011;31237;45.586;13.782;2023-07-24T11:20:48;10.30;;;5.65;;
45490;SDS011;31237;45.586;13.782;2023-07-24T11:23:20;10.20;;;6.18;;
45490;SDS011;31237;45.586;13.782;2023-07-24T11:25:46;9.50;;;5.57;;
45490;SDS011;31237;45.586;13.782;2023-07-24T11:28:16;11.10;;;5.72;;
45490;SDS011;31237;45.586;13.782;2023-07-24T11:30:44;10.15;;;5.57;;
45490;SDS011;31237;45.586;13.782;2023-07-24T11:33:14;8.23;;;5.47;;
45490;SDS011;31237;45.586;13.782;2023-07-24T11:35:41;11.48;;;6.03;;
45490;SDS011;31237;45.586;13.782;2023-07-24T11:38:08;10.65;;;6.78;;
45490;SDS011;31237;45.586;13.782;2023-07-24T11:40:39;9.00;;;5.93;;
45490;SDS011;31237;45.586;13.782;2023-07-24T11:43:17;9.15;;;5.78;;
45490;SDS011;31237;45.586;13.782;2023-07-24T11:45:45;13.32;;;6.75;;
45490;SDS011;31237;45.586;13.782;2023-07-24T11:48:27;11.05;;;5.60;;
45490;SDS011;31237;45.586;13.782;2023-07-24T11:50:54;10.82;;;6.55;;
45490;SDS011;31237;45.586;13.782;2023-07-24T11:53:31;11.23;;;5.85;;
45490;SDS011;31237;45.586;13.782;2023-07-24T11:55:58;10.85;;;5.93;;
45490;SDS011;31237;45.586;13.782;2023-07-24T11:58:29;8.70;;;5.80;;
45490;SDS011;31237;45.586;13.782;2023-07-24T12:00:57;10.80;;;6.47;;
45490;SDS011;31237;45.586;13.782;2023-07-24T12:03:26;9.43;;;6.57;;
45490;SDS011;31237;45.586;13.782;2023-07-24T12:05:54;14.85;;;6.93;;
45490;SDS011;31237;45.586;13.782;2023-07-24T12:08:31;11.25;;;7.22;;
45490;SDS011;31237;45.586;13.782;2023-07-24T12:10:59;11.02;;;6.43;;
45490;SDS011;31237;45.586;13.782;2023-07-24T12:13:25;9.93;;;6.88;;
45490;SDS011;31237;45.586;13.782;2023-07-24T12:15:52;10.13;;;6.07;;
45490;SDS011;31237;45.586;13.782;2023-07-24T12:18:21;8.95;;;5.80;;
45490;SDS011;31237;45.586;13.782;2023-07-24T12:20:47;14.50;;;6.35;;
45490;SDS011;31237;45.586;13.782;2023-07-24T12:23:13;11.20;;;7.30;;
45490;SDS011;31237;45.586;13.782;2023-07-24T12:25:42;11.95;;;6.22;;
45490;SDS011;31237;45.586;13.782;2023-07-24T12:28:08;13.25;;;6.70;;
45490;SDS011;31237;45.586;13.782;2023-07-24T12:30:34;10.93;;;6.07;;
45490;SDS011;31237;45.586;13.782;2023-07-24T12:33:09;12.27;;;6.40;;
45490;SDS011;31237;45.586;13.782;2023-07-24T12:35:35;9.02;;;6.07;;
45490;SDS011;31237;45.586;13.782;2023-07-24T12:38:07;12.95;;;5.93;;
45490;SDS011;31237;45.586;13.782;2023-07-24T12:40:33;10.57;;;6.07;;
45490;SDS011;31237;45.586;13.782;2023-07-24T12:42:59;15.88;;;6.85;;
45490;SDS011;31237;45.586;13.782;2023-07-24T12:45:26;9.25;;;6.28;;
45490;SDS011;31237;45.586;13.782;2023-07-24T12:47:53;13.35;;;6.38;;
45490;SDS011;31237;45.586;13.782;2023-07-24T12:50:20;10.23;;;5.65;;
45490;SDS011;31237;45.586;13.782;2023-07-24T12:52:48;7.88;;;5.47;;
45490;SDS011;31237;45.586;13.782;2023-07-24T12:55:16;9.52;;;6.13;;
45490;SDS011;31237;45.586;13.782;2023-07-24T12:57:43;14.10;;;6.80;;
45490;SDS011;31237;45.586;13.782;2023-07-24T13:00:09;11.18;;;6.05;;
45490;SDS011;31237;45.586;13.782;2023-07-24T13:02:35;17.92;;;6.97;;
45490;SDS011;31237;45.586;13.782;2023-07-24T13:05:01;8.73;;;7.05;;
45490;SDS011;31237;45.586;13.782;2023-07-24T13:07:27;12.98;;;11.65;;
45490;SDS011;31237;45.586;13.782;2023-07-24T13:09:54;12.60;;;11.23;;
45490;SDS011;31237;45.586;13.782;2023-07-24T13:12:20;12.27;;;6.85;;
45490;SDS011;31237;45.586;13.782;2023-07-24T13:14:45;11.02;;;6.60;;
45490;SDS011;31237;45.586;13.782;2023-07-24T13:17:11;11.38;;;6.70;;
45490;SDS011;31237;45.586;13.782;2023-07-24T13:19:37;14.23;;;7.38;;
45490;SDS011;31237;45.586;13.782;2023-07-24T13:22:03;9.75;;;6.80;;
45490;SDS011;31237;45.586;13.782;2023-07-24T13:24:29;11.07;;;6.45;;
45490;SDS011;31237;45.586;13.782;2023-07-24T13:26:55;11.80;;;7.18;;
45490;SDS011;31237;45.586;13.782;2023-07-24T13:29:20;12.52;;;7.40;;
45490;SDS011;31237;45.586;13.782;2023-07-24T13:31:46;11.40;;;6.40;;
45490;SDS011;31237;45.586;13.782;2023-07-24T13:34:12;12.63;;;6.75;;
45490;SDS011;31237;45.586;13.782;2023-07-24T13:36:37;8.95;;;6.72;;
45490;SDS011;31237;45.586;13.782;2023-07-24T13:39:03;11.90;;;6.70;;
45490;SDS011;31237;45.586;13.782;2023-07-24T13:41:29;11.95;;;6.15;;
45490;SDS011;31237;45.586;13.782;2023-07-24T13:43:55;8.85;;;5.97;;
45490;SDS011;31237;45.586;13.782;2023-07-24T13:46:20;9.02;;;7.07;;
45490;SDS011;31237;45.586;13.782;2023-07-24T13:48:46;12.77;;;7.80;;
45490;SDS011;31237;45.586;13.782;2023-07-24T13:51:12;12.48;;;6.93;;
45490;SDS011;31237;45.586;13.782;2023-07-24T13:53:37;11.40;;;6.38;;
45490;SDS011;31237;45.586;13.782;2023-07-24T13:56:03;10.18;;;7.28;;
45490;SDS011;31237;45.586;13.782;2023-07-24T13:58:29;11.88;;;7.03;;
45490;SDS011;31237;45.586;13.782;2023-07-24T14:00:55;13.85;;;7.55;;
45490;SDS011;31237;45.586;13.782;2023-07-24T14:03:21;12.38;;;7.05;;
45490;SDS011;31237;45.586;13.782;2023-07-24T14:05:49;10.57;;;6.57;;
45490;SDS011;31237;45.586;13.782;2023-07-24T14:08:14;9.27;;;6.70;;
45490;SDS011;31237;45.586;13.782;2023-07-24T14:10:40;12.00;;;7.68;;
45490;SDS011;31237;45.586;13.782;2023-07-24T14:13:06;12.10;;;6.90;;
45490;SDS011;31237;45.586;13.782;2023-07-24T14:15:32;11.85;;;7.78;;
45490;SDS011;31237;45.586;13.782;2023-07-24T14:17:57;11.02;;;6.82;;
45490;SDS011;31237;45.586;13.782;2023-07-24T14:20:23;9.60;;;6.20;;
45490;SDS011;31237;45.586;13.782;2023-07-24T14:22:49;8.52;;;6.32;;
45490;SDS011;31237;45.586;13.782;2023-07-24T14:25:14;15.65;;;6.50;;